sensor_id;sensor_type;location;lat;lon;timestamp;P1;durP1;ratioP1;P2;durP2;ratioP2
28988;SDS011;16089;59.952;10.818;2024-02-23T00:01:08;3.45;;;0.88;;
28988;SDS011;16089;59.952;10.818;2024-02-23T00:03:36;4.00;;;0.95;;
28988;SDS011;16089;59.952;10.818;2024-02-23T00:06:03;1.63;;;0.60;;
28988;SDS011;16089;59.952;10.818;2024-02-23T00:08:29;2.35;;;0.95;;
28988;SDS011;16089;59.952;10.818;2024-02-23T00:10:57;2.03;;;0.60;;
28988;SDS011;16089;59.952;10.818;2024-02-23T00:13:24;1.42;;;0.50;;
28988;SDS011;16089;59.952;10.818;2024-02-23T00:15:50;1.67;;;0.55;;
28988;SDS011;16089;59.952;10.818;2024-02-23T00:18:17;0.73;;;0.40;;
28988;SDS011;16089;59.952;10.818;2024-02-23T00:20:43;1.98;;;0.50;;
28988;SDS011;16089;59.952;10.818;2024-02-23T00:23:10;1.48;;;0.43;;
28988;SDS011;16089;59.952;10.818;2024-02-23T00:25:37;0.88;;;0.30;;
28988;SDS011;16089;59.952;10.818;2024-02-23T00:28:05;0.73;;;0.30;;
28988;SDS011;16089;59.952;10.818;2024-02-23T00:30:31;2.45;;;0.47;;
28988;SDS011;16089;59.952;10.818;2024-02-23T00:32:58;1.17;;;0.40;;
28988;SDS011;16089;59.952;10.818;2024-02-23T00:35:24;0.55;;;0.20;;
28988;SDS011;16089;59.952;10.818;2024-02-23T00:37:51;0.98;;;0.28;;
28988;SDS011;16089;59.952;10.818;2024-02-23T00:40:17;0.75;;;0.30;;
28988;SDS011;16089;59.952;10.818;2024-02-23T00:42:44;1.88;;;0.55;;
28988;SDS011;16089;59.952;10.818;2024-02-23T00:45:12;0.98;;;0.32;;
28988;SDS011;16089;59.952;10.818;2024-02-23T00:47:38;0.90;;;0.30;;
28988;SDS011;16089;59.952;10.818;2024-02-23T00:50:05;0.43;;;0.20;;
28988;SDS011;16089;59.952;10.818;2024-02-23T00:52:31;0.90;;;0.32;;
28988;SDS011;16089;59.952;10.818;2024-02-23T00:54:59;1.58;;;0.20;;
28988;SDS011;16089;59.952;10.818;2024-02-23T00:57:25;1.15;;;0.30;;
28988;SDS011;16089;59.952;10.818;2024-02-23T00:59:54;0.52;;;0.30;;
28988;SDS011;16089;59.952;10.818;2024-02-23T01:02:22;1.42;;;0.40;;
28988;SDS011;16089;59.952;10.818;2024-02-23T01:04:49;1.50;;;0.50;;
28988;SDS011;16089;59.952;10.818;2024-02-23T01:07:15;1.83;;;0.50;;
28988;SDS011;16089;59.952;10.818;2024-02-23T01:09:41;0.85;;;0.28;;
28988;SDS011;16089;59.952;10.818;2024-02-23T01:12:08;0.60;;;0.30;;
28988;SDS011;16089;59.952;10.818;2024-02-23T01:14:34;1.55;;;0.47;;
28988;SDS011;16089;59.952;10.818;2024-02-23T01:17:01;1.23;;;0.40;;
28988;SDS011;16089;59.952;10.818;2024-02-23T01:19:29;2.05;;;0.40;;
28988;SDS011;16089;59.952;10.818;2024-02-23T01:21:55;1.45;;;0.40;;
28988;SDS011;16089;59.952;10.818;2024-02-23T01:24:24;1.52;;;0.45;;
28988;SDS011;16089;59.952;10.818;2024-02-23T01:26:52;0.43;;;0.20;;
28988;SDS011;16089;59.952;10.818;2024-02-23T01:29:19;0.82;;;0.20;;
28988;SDS011;16089;59.952;10.818;2024-02-23T01:31:46;0.98;;;0.30;;
28988;SDS011;16089;59.952;10.818;2024-02-23T01:34:12;0.40;;;0.20;;
28988;SDS011;16089;59.952;10.818;2024-02-23T01:36:40;1.00;;;0.30;;
28988;SDS011;16089;59.952;10.818;2024-02-23T01:39:07;0.60;;;0.20;;
28988;SDS011;16089;59.952;10.818;2024-02-23T01:41:34;0.52;;;0.30;;
28988;SDS011;16089;59.952;10.818;2024-02-23T01:44:01;0.85;;;0.40;;
28988;SDS011;16089;59.952;10.818;2024-02-23T01:46:27;0.45;;;0.15;;
28988;SDS011;16089;59.952;10.818;2024-02-23T01:48:54;0.35;;;0.20;;
28988;SDS011;16089;59.952;10.818;2024-02-23T01:51:20;0.75;;;0.20;;
28988;SDS011;16089;59.952;10.818;2024-02-23T01:53:48;1.08;;;0.30;;
28988;SDS011;16089;59.952;10.818;2024-02-23T01:56:15;0.30;;;0.20;;
28988;SDS011;16089;59.952;10.818;2024-02-23T01:58:43;0.70;;;0.30;;
28988;SDS011;16089;59.952;10.818;2024-02-23T02:01:09;0.52;;;0.28;;
28988;SDS011;16089;59.952;10.818;2024-02-23T02:03:36;0.35;;;0.22;;
28988;SDS011;16089;59.952;10.818;2024-02-23T02:06:04;0.57;;;0.20;;
28988;SDS011;16089;59.952;10.818;2024-02-23T02:08:30;0.75;;;0.30;;
28988;SDS011;16089;59.952;10.818;2024-02-23T02:10:58;1.25;;;0.30;;
28988;SDS011;16089;59.952;10.818;2024-02-23T02:13:25;0.22;;;0.20;;
28988;SDS011;16089;59.952;10.818;2024-02-23T02:15:51;1.23;;;0.50;;
28988;SDS011;16089;59.952;10.818;2024-02-23T02:18:17;0.70;;;0.40;;
28988;SDS011;16089;59.952;10.818;2024-02-23T02:20:49;0.40;;;0.30;;
28988;SDS011;16089;59.952;10.818;2024-02-23T02:23:16;0.55;;;0.40;;
28988;SDS011;16089;59.952;10.818;2024-02-23T02:25:43;0.95;;;0.50;;
28988;SDS011;16089;59.952;10.818;2024-02-23T02:28:11;1.60;;;0.60;;
28988;SDS011;16089;59.952;10.818;2024-02-23T02:30:37;1.90;;;0.80;;
28988;SDS011;16089;59.952;10.818;2024-02-23T02:33:04;0.77;;;0.40;;
28988;SDS011;16089;59.952;10.818;2024-02-23T02:35:30;1.38;;;0.55;;
28988;SDS011;16089;59.952;10.818;2024-02-23T02:37:57;0.85;;;0.50;;
28988;SDS011;16089;59.952;10.818;2024-02-23T02:40:23;1.20;;;0.60;;
28988;SDS011;16089;59.952;10.818;2024-02-23T02:42:49;0.93;;;0.52;;
28988;SDS011;16089;59.952;10.818;2024-02-23T02:45:17;1.48;;;0.68;;
28988;SDS011;16089;59.952;10.818;2024-02-23T02:47:44;1.05;;;0.52;;
28988;SDS011;16089;59.952;10.818;2024-02-23T02:50:10;1.10;;;0.55;;
28988;SDS011;16089;59.952;10.818;2024-02-23T02:52:37;1.15;;;0.60;;
28988;SDS011;16089;59.952;10.818;2024-02-23T02:55:04;1.60;;;0.75;;
28988;SDS011;16089;59.952;10.818;2024-02-23T02:57:30;0.95;;;0.50;;
28988;SDS011;16089;59.952;10.818;2024-02-23T02:59:56;1.50;;;0.60;;
28988;SDS011;16089;59.952;10.818;2024-02-23T03:02:24;0.93;;;0.50;;
28988;SDS011;16089;59.952;10.818;2024-02-23T03:04:51;1.17;;;0.60;;
28988;SDS011;16089;59.952;10.818;2024-02-23T03:07:19;1.15;;;0.60;;
28988;SDS011;16089;59.952;10.818;2024-02-23T03:09:46;1.33;;;0.60;;
28988;SDS011;16089;59.952;10.818;2024-02-23T03:12:13;1.23;;;0.70;;
28988;SDS011;16089;59.952;10.818;2024-02-23T03:14:40;1.10;;;0.60;;
28988;SDS011;16089;59.952;10.818;2024-02-23T03:17:07;1.48;;;0.70;;
28988;SDS011;16089;59.952;10.818;2024-02-23T03:19:35;0.98;;;0.60;;
28988;SDS011;16089;59.952;10.818;2024-02-23T03:22:02;1.75;;;0.70;;
28988;SDS011;16089;59.952;10.818;2024-02-23T03:24:29;1.67;;;0.60;;
28988;SDS011;16089;59.952;10.818;2024-02-23T03:26:55;1.20;;;0.50;;
28988;SDS011;16089;59.952;10.818;2024-02-23T03:29:21;1.05;;;0.60;;
28988;SDS011;16089;59.952;10.818;2024-02-23T03:31:49;1.10;;;0.60;;
28988;SDS011;16089;59.952;10.818;2024-02-23T03:34:15;1.30;;;0.60;;
28988;SDS011;16089;59.952;10.818;2024-02-23T03:36:43;1.40;;;0.70;;
28988;SDS011;16089;59.952;10.818;2024-02-23T03:39:10;1.50;;;0.63;;
28988;SDS011;16089;59.952;10.818;2024-02-23T03:41:37;1.05;;;0.57;;
28988;SDS011;16089;59.952;10.818;2024-02-23T03:44:03;1.92;;;0.80;;
28988;SDS011;16089;59.952;10.818;2024-02-23T03:46:30;1.10;;;0.60;;
28988;SDS011;16089;59.952;10.818;2024-02-23T03:48:56;1.05;;;0.65;;
28988;SDS011;16089;59.952;10.818;2024-02-23T03:51:23;1.63;;;0.70;;
28988;SDS011;16089;59.952;10.818;2024-02-23T03:53:51;1.60;;;0.70;;
28988;SDS011;16089;59.952;10.818;2024-02-23T03:56:17;1.42;;;0.70;;
28988;SDS011;16089;59.952;10.818;2024-02-23T03:58:44;1.45;;;0.80;;
28988;SDS011;16089;59.952;10.818;2024-02-23T04:01:10;1.55;;;0.85;;
28988;SDS011;16089;59.952;10.818;2024-02-23T04:03:36;1.08;;;0.60;;
28988;SDS011;16089;59.952;10.818;2024-02-23T04:06:03;0.88;;;0.52;;
28988;SDS011;16089;59.952;10.818;2024-02-23T04:08:30;1.23;;;0.60;;
28988;SDS011;16089;59.952;10.818;2024-02-23T04:10:58;0.73;;;0.45;;
28988;SDS011;16089;59.952;10.818;2024-02-23T04:13:24;0.65;;;0.43;;
28988;SDS011;16089;59.952;10.818;2024-02-23T04:15:51;0.90;;;0.40;;
28988;SDS011;16089;59.952;10.818;2024-02-23T04:18:17;1.20;;;0.45;;
28988;SDS011;16089;59.952;10.818;2024-02-23T04:20:43;0.90;;;0.38;;
28988;SDS011;16089;59.952;10.818;2024-02-23T04:23:10;1.02;;;0.45;;
28988;SDS011;16089;59.952;10.818;2024-02-23T04:25:36;1.52;;;0.40;;
28988;SDS011;16089;59.952;10.818;2024-02-23T04:28:05;0.93;;;0.40;;
28988;SDS011;16089;59.952;10.818;2024-02-23T04:30:31;1.10;;;0.50;;
28988;SDS011;16089;59.952;10.818;2024-02-23T04:32:58;0.40;;;0.30;;
28988;SDS011;16089;59.952;10.818;2024-02-23T04:35:24;1.27;;;0.45;;
28988;SDS011;16089;59.952;10.818;2024-02-23T04:37:51;1.20;;;0.50;;
28988;SDS011;16089;59.952;10.818;2024-02-23T04:40:17;1.20;;;0.50;;
28988;SDS011;16089;59.952;10.818;2024-02-23T04:42:44;1.13;;;0.50;;
28988;SDS011;16089;59.952;10.818;2024-02-23T04:45:13;1.83;;;0.50;;
28988;SDS011;16089;59.952;10.818;2024-02-23T04:47:40;1.63;;;0.55;;
28988;SDS011;16089;59.952;10.818;2024-02-23T04:50:06;1.83;;;0.43;;
28988;SDS011;16089;59.952;10.818;2024-02-23T04:52:33;1.40;;;0.30;;
28988;SDS011;16089;59.952;10.818;2024-02-23T04:55:00;0.85;;;0.40;;
28988;SDS011;16089;59.952;10.818;2024-02-23T04:57:26;1.67;;;0.50;;
28988;SDS011;16089;59.952;10.818;2024-02-23T04:59:53;0.38;;;0.28;;
28988;SDS011;16089;59.952;10.818;2024-02-23T05:02:21;1.20;;;0.50;;
28988;SDS011;16089;59.952;10.818;2024-02-23T05:04:47;1.00;;;0.40;;
28988;SDS011;16089;59.952;10.818;2024-02-23T05:07:14;0.88;;;0.40;;
28988;SDS011;16089;59.952;10.818;2024-02-23T05:09:40;0.85;;;0.40;;
28988;SDS011;16089;59.952;10.818;2024-02-23T05:12:07;2.30;;;0.35;;
28988;SDS011;16089;59.952;10.818;2024-02-23T05:14:34;0.45;;;0.30;;
28988;SDS011;16089;59.952;10.818;2024-02-23T05:17:00;1.10;;;0.40;;
28988;SDS011;16089;59.952;10.818;2024-02-23T05:19:30;0.88;;;0.30;;
28988;SDS011;16089;59.952;10.818;2024-02-23T05:21:56;1.75;;;0.32;;
28988;SDS011;16089;59.952;10.818;2024-02-23T05:24:23;1.40;;;0.22;;
28988;SDS011;16089;59.952;10.818;2024-02-23T05:26:49;0.38;;;0.20;;
28988;SDS011;16089;59.952;10.818;2024-02-23T05:29:16;0.47;;;0.20;;
28988;SDS011;16089;59.952;10.818;2024-02-23T05:31:45;2.67;;;0.90;;
28988;SDS011;16089;59.952;10.818;2024-02-23T05:34:12;0.40;;;0.20;;
28988;SDS011;16089;59.952;10.818;2024-02-23T05:36:40;1.00;;;0.35;;
28988;SDS011;16089;59.952;10.818;2024-02-23T05:39:07;0.40;;;0.28;;
28988;SDS011;16089;59.952;10.818;2024-02-23T05:41:34;0.93;;;0.30;;
28988;SDS011;16089;59.952;10.818;2024-02-23T05:44:01;0.40;;;0.20;;
28988;SDS011;16089;59.952;10.818;2024-02-23T05:46:29;0.90;;;0.30;;
28988;SDS011;16089;59.952;10.818;2024-02-23T05:48:55;1.13;;;0.40;;
28988;SDS011;16089;59.952;10.818;2024-02-23T05:51:23;1.30;;;0.57;;
28988;SDS011;16089;59.952;10.818;2024-02-23T05:53:50;1.02;;;0.50;;
28988;SDS011;16089;59.952;10.818;2024-02-23T05:56:17;4.93;;;2.13;;
28988;SDS011;16089;59.952;10.818;2024-02-23T05:58:43;2.67;;;0.52;;
28988;SDS011;16089;59.952;10.818;2024-02-23T06:01:10;0.40;;;0.30;;
28988;SDS011;16089;59.952;10.818;2024-02-23T06:03:36;0.43;;;0.30;;
28988;SDS011;16089;59.952;10.818;2024-02-23T06:06:06;0.60;;;0.30;;
28988;SDS011;16089;59.952;10.818;2024-02-23T06:08:32;0.70;;;0.30;;
28988;SDS011;16089;59.952;10.818;2024-02-23T06:11:00;0.82;;;0.30;;
28988;SDS011;16089;59.952;10.818;2024-02-23T06:13:28;0.63;;;0.30;;
28988;SDS011;16089;59.952;10.818;2024-02-23T06:15:55;0.50;;;0.30;;
28988;SDS011;16089;59.952;10.818;2024-02-23T06:18:21;0.57;;;0.28;;
28988;SDS011;16089;59.952;10.818;2024-02-23T06:20:47;0.40;;;0.20;;
28988;SDS011;16089;59.952;10.818;2024-02-23T06:23:14;0.85;;;0.30;;
28988;SDS011;16089;59.952;10.818;2024-02-23T06:25:40;0.30;;;0.20;;
28988;SDS011;16089;59.952;10.818;2024-02-23T06:28:08;0.40;;;0.20;;
28988;SDS011;16089;59.952;10.818;2024-02-23T06:30:36;0.28;;;0.20;;
28988;SDS011;16089;59.952;10.818;2024-02-23T06:33:02;0.35;;;0.20;;
28988;SDS011;16089;59.952;10.818;2024-02-23T06:35:29;0.80;;;0.28;;
28988;SDS011;16089;59.952;10.818;2024-02-23T06:37:56;0.75;;;0.28;;
28988;SDS011;16089;59.952;10.818;2024-02-23T06:40:22;1.15;;;0.50;;
28988;SDS011;16089;59.952;10.818;2024-02-23T06:42:49;1.35;;;0.40;;
28988;SDS011;16089;59.952;10.818;2024-02-23T06:45:17;0.57;;;0.20;;
28988;SDS011;16089;59.952;10.818;2024-02-23T06:47:44;0.68;;;0.30;;
28988;SDS011;16089;59.952;10.818;2024-02-23T06:50:10;0.85;;;0.30;;
28988;SDS011;16089;59.952;10.818;2024-02-23T06:52:37;0.95;;;0.28;;
28988;SDS011;16089;59.952;10.818;2024-02-23T06:55:06;0.50;;;0.20;;
28988;SDS011;16089;59.952;10.818;2024-02-23T06:57:34;0.68;;;0.30;;
28988;SDS011;16089;59.952;10.818;2024-02-23T07:00:01;0.50;;;0.20;;
28988;SDS011;16089;59.952;10.818;2024-02-23T07:02:30;0.65;;;0.25;;
28988;SDS011;16089;59.952;10.818;2024-02-23T07:05:00;0.22;;;0.20;;
28988;SDS011;16089;59.952;10.818;2024-02-23T07:07:29;1.33;;;0.30;;
28988;SDS011;16089;59.952;10.818;2024-02-23T07:09:55;1.05;;;0.30;;
28988;SDS011;16089;59.952;10.818;2024-02-23T07:12:22;1.00;;;0.40;;
28988;SDS011;16089;59.952;10.818;2024-02-23T07:14:48;1.48;;;0.40;;
28988;SDS011;16089;59.952;10.818;2024-02-23T07:17:16;0.93;;;0.30;;
28988;SDS011;16089;59.952;10.818;2024-02-23T07:19:44;0.73;;;0.30;;
28988;SDS011;16089;59.952;10.818;2024-02-23T07:22:10;0.55;;;0.25;;
28988;SDS011;16089;59.952;10.818;2024-02-23T07:24:39;1.08;;;0.40;;
28988;SDS011;16089;59.952;10.818;2024-02-23T07:27:14;0.82;;;0.20;;
28988;SDS011;16089;59.952;10.818;2024-02-23T07:29:41;0.73;;;0.40;;
28988;SDS011;16089;59.952;10.818;2024-02-23T07:32:07;0.93;;;0.30;;
28988;SDS011;16089;59.952;10.818;2024-02-23T07:34:33;0.52;;;0.20;;
28988;SDS011;16089;59.952;10.818;2024-02-23T07:37:01;0.80;;;0.40;;
28988;SDS011;16089;59.952;10.818;2024-02-23T07:39:29;1.02;;;0.30;;
28988;SDS011;16089;59.952;10.818;2024-02-23T07:41:55;0.82;;;0.30;;
28988;SDS011;16089;59.952;10.818;2024-02-23T07:44:22;0.55;;;0.30;;
28988;SDS011;16089;59.952;10.818;2024-02-23T07:46:50;0.65;;;0.38;;
28988;SDS011;16089;59.952;10.818;2024-02-23T07:49:17;0.70;;;0.35;;
28988;SDS011;16089;59.952;10.818;2024-02-23T07:51:44;1.75;;;0.60;;
28988;SDS011;16089;59.952;10.818;2024-02-23T07:54:12;1.13;;;0.43;;
28988;SDS011;16089;59.952;10.818;2024-02-23T07:56:38;0.98;;;0.40;;
28988;SDS011;16089;59.952;10.818;2024-02-23T07:59:05;1.02;;;0.50;;
28988;SDS011;16089;59.952;10.818;2024-02-23T08:01:31;2.17;;;0.52;;
28988;SDS011;16089;59.952;10.818;2024-02-23T08:03:57;3.35;;;0.63;;
28988;SDS011;16089;59.952;10.818;2024-02-23T08:06:24;1.40;;;0.50;;
28988;SDS011;16089;59.952;10.818;2024-02-23T08:08:51;1.85;;;0.65;;
28988;SDS011;16089;59.952;10.818;2024-02-23T08:11:20;1.05;;;0.40;;
28988;SDS011;16089;59.952;10.818;2024-02-23T08:13:46;0.93;;;0.50;;
28988;SDS011;16089;59.952;10.818;2024-02-23T08:16:12;0.68;;;0.40;;
28988;SDS011;16089;59.952;10.818;2024-02-23T08:18:39;0.75;;;0.32;;
28988;SDS011;16089;59.952;10.818;2024-02-23T08:21:06;0.60;;;0.30;;
28988;SDS011;16089;59.952;10.818;2024-02-23T08:23:32;1.13;;;0.45;;
28988;SDS011;16089;59.952;10.818;2024-02-23T08:25:59;1.33;;;0.60;;
28988;SDS011;16089;59.952;10.818;2024-02-23T08:28:27;1.58;;;0.60;;
28988;SDS011;16089;59.952;10.818;2024-02-23T08:30:53;2.50;;;1.00;;
28988;SDS011;16089;59.952;10.818;2024-02-23T08:33:20;1.27;;;0.47;;
28988;SDS011;16089;59.952;10.818;2024-02-23T08:35:46;2.10;;;0.80;;
28988;SDS011;16089;59.952;10.818;2024-02-23T08:38:13;1.38;;;0.40;;
28988;SDS011;16089;59.952;10.818;2024-02-23T08:40:40;2.15;;;0.50;;
28988;SDS011;16089;59.952;10.818;2024-02-23T08:43:07;5.28;;;0.50;;
28988;SDS011;16089;59.952;10.818;2024-02-23T08:45:35;4.93;;;0.80;;
28988;SDS011;16089;59.952;10.818;2024-02-23T08:48:01;1.30;;;0.30;;
28988;SDS011;16089;59.952;10.818;2024-02-23T08:50:28;0.95;;;0.30;;
28988;SDS011;16089;59.952;10.818;2024-02-23T08:52:55;2.28;;;0.40;;
28988;SDS011;16089;59.952;10.818;2024-02-23T08:55:21;2.63;;;0.45;;
28988;SDS011;16089;59.952;10.818;2024-02-23T08:57:48;2.03;;;0.40;;
28988;SDS011;16089;59.952;10.818;2024-02-23T09:00:15;1.33;;;0.43;;
28988;SDS011;16089;59.952;10.818;2024-02-23T09:02:43;3.22;;;0.43;;
28988;SDS011;16089;59.952;10.818;2024-02-23T09:05:09;1.52;;;0.50;;
28988;SDS011;16089;59.952;10.818;2024-02-23T09:07:35;2.45;;;0.30;;
28988;SDS011;16089;59.952;10.818;2024-02-23T09:10:02;1.08;;;0.20;;
28988;SDS011;16089;59.952;10.818;2024-02-23T09:12:30;4.18;;;0.70;;
28988;SDS011;16089;59.952;10.818;2024-02-23T09:14:56;2.22;;;0.30;;
28988;SDS011;16089;59.952;10.818;2024-02-23T09:17:23;1.63;;;0.40;;
28988;SDS011;16089;59.952;10.818;2024-02-23T09:19:52;4.30;;;0.30;;
28988;SDS011;16089;59.952;10.818;2024-02-23T09:22:18;1.63;;;0.30;;
28988;SDS011;16089;59.952;10.818;2024-02-23T09:24:45;0.95;;;0.30;;
28988;SDS011;16089;59.952;10.818;2024-02-23T09:27:11;2.65;;;0.30;;
28988;SDS011;16089;59.952;10.818;2024-02-23T09:29:38;2.47;;;0.30;;
28988;SDS011;16089;59.952;10.818;2024-02-23T09:32:04;1.08;;;0.20;;
28988;SDS011;16089;59.952;10.818;2024-02-23T09:34:31;0.40;;;0.13;;
28988;SDS011;16089;59.952;10.818;2024-02-23T09:36:59;1.75;;;0.20;;
28988;SDS011;16089;59.952;10.818;2024-02-23T09:39:26;1.35;;;0.20;;
28988;SDS011;16089;59.952;10.818;2024-02-23T09:41:55;3.95;;;0.50;;
28988;SDS011;16089;59.952;10.818;2024-02-23T09:44:21;1.88;;;0.38;;
28988;SDS011;16089;59.952;10.818;2024-02-23T09:46:48;1.10;;;0.30;;
28988;SDS011;16089;59.952;10.818;2024-02-23T09:49:15;0.68;;;0.25;;
28988;SDS011;16089;59.952;10.818;2024-02-23T09:51:42;1.40;;;0.40;;
28988;SDS011;16089;59.952;10.818;2024-02-23T09:54:11;0.32;;;0.10;;
28988;SDS011;16089;59.952;10.818;2024-02-23T09:56:37;1.88;;;0.20;;
28988;SDS011;16089;59.952;10.818;2024-02-23T09:59:04;0.88;;;0.20;;
28988;SDS011;16089;59.952;10.818;2024-02-23T10:01:31;0.30;;;0.10;;
28988;SDS011;16089;59.952;10.818;2024-02-23T10:03:58;0.65;;;0.30;;
28988;SDS011;16089;59.952;10.818;2024-02-23T10:06:25;0.90;;;0.20;;
28988;SDS011;16089;59.952;10.818;2024-02-23T10:08:52;0.60;;;0.20;;
28988;SDS011;16089;59.952;10.818;2024-02-23T10:11:20;1.55;;;0.30;;
28988;SDS011;16089;59.952;10.818;2024-02-23T10:13:47;1.17;;;0.25;;
28988;SDS011;16089;59.952;10.818;2024-02-23T10:16:14;0.10;;;0.10;;
28988;SDS011;16089;59.952;10.818;2024-02-23T10:18:41;1.60;;;0.20;;
28988;SDS011;16089;59.952;10.818;2024-02-23T10:21:07;2.15;;;0.50;;
28988;SDS011;16089;59.952;10.818;2024-02-23T10:23:34;3.67;;;1.00;;
28988;SDS011;16089;59.952;10.818;2024-02-23T10:26:00;1.52;;;0.50;;
28988;SDS011;16089;59.952;10.818;2024-02-23T10:28:28;0.55;;;0.20;;
28988;SDS011;16089;59.952;10.818;2024-02-23T10:30:54;1.50;;;0.30;;
28988;SDS011;16089;59.952;10.818;2024-02-23T10:33:22;1.13;;;0.30;;
28988;SDS011;16089;59.952;10.818;2024-02-23T10:35:49;3.45;;;0.50;;
28988;SDS011;16089;59.952;10.818;2024-02-23T10:38:17;2.22;;;0.85;;
28988;SDS011;16089;59.952;10.818;2024-02-23T10:40:44;0.73;;;0.20;;
28988;SDS011;16089;59.952;10.818;2024-02-23T10:43:12;1.40;;;0.20;;
28988;SDS011;16089;59.952;10.818;2024-02-23T10:45:40;0.35;;;0.17;;
28988;SDS011;16089;59.952;10.818;2024-02-23T10:48:07;0.55;;;0.10;;
28988;SDS011;16089;59.952;10.818;2024-02-23T10:50:34;0.88;;;0.10;;
28988;SDS011;16089;59.952;10.818;2024-02-23T10:53:02;0.30;;;0.20;;
28988;SDS011;16089;59.952;10.818;2024-02-23T10:55:29;2.47;;;0.20;;
28988;SDS011;16089;59.952;10.818;2024-02-23T10:57:57;2.97;;;0.22;;
28988;SDS011;16089;59.952;10.818;2024-02-23T11:00:24;1.02;;;0.10;;
28988;SDS011;16089;59.952;10.818;2024-02-23T11:02:52;0.63;;;0.13;;
28988;SDS011;16089;59.952;10.818;2024-02-23T11:05:20;2.63;;;0.70;;
28988;SDS011;16089;59.952;10.818;2024-02-23T11:07:47;2.67;;;0.70;;
28988;SDS011;16089;59.952;10.818;2024-02-23T11:10:15;1.80;;;0.60;;
28988;SDS011;16089;59.952;10.818;2024-02-23T11:12:43;2.35;;;0.80;;
28988;SDS011;16089;59.952;10.818;2024-02-23T11:15:09;2.47;;;0.60;;
28988;SDS011;16089;59.952;10.818;2024-02-23T11:17:53;4.35;;;0.80;;
28988;SDS011;16089;59.952;10.818;2024-02-23T11:20:19;3.03;;;0.70;;
28988;SDS011;16089;59.952;10.818;2024-02-23T11:22:51;2.17;;;0.82;;
28988;SDS011;16089;59.952;10.818;2024-02-23T11:25:17;3.95;;;1.00;;
28988;SDS011;16089;59.952;10.818;2024-02-23T11:27:45;5.18;;;1.15;;
28988;SDS011;16089;59.952;10.818;2024-02-23T11:30:16;4.78;;;0.85;;
28988;SDS011;16089;59.952;10.818;2024-02-23T11:32:43;3.63;;;1.25;;
28988;SDS011;16089;59.952;10.818;2024-02-23T11:35:13;6.82;;;0.90;;
28988;SDS011;16089;59.952;10.818;2024-02-23T11:37:46;2.40;;;1.10;;
28988;SDS011;16089;59.952;10.818;2024-02-23T11:40:13;1.98;;;0.80;;
28988;SDS011;16089;59.952;10.818;2024-02-23T11:42:40;8.50;;;3.38;;
28988;SDS011;16089;59.952;10.818;2024-02-23T11:45:07;1.92;;;1.00;;
28988;SDS011;16089;59.952;10.818;2024-02-23T11:47:34;2.65;;;0.70;;
28988;SDS011;16089;59.952;10.818;2024-02-23T11:50:01;4.18;;;1.00;;
28988;SDS011;16089;59.952;10.818;2024-02-23T11:52:29;6.35;;;1.35;;
28988;SDS011;16089;59.952;10.818;2024-02-23T11:54:55;3.45;;;1.23;;
28988;SDS011;16089;59.952;10.818;2024-02-23T11:57:22;4.88;;;1.10;;
28988;SDS011;16089;59.952;10.818;2024-02-23T11:59:50;7.72;;;1.38;;
28988;SDS011;16089;59.952;10.818;2024-02-23T12:02:18;4.38;;;1.38;;
28988;SDS011;16089;59.952;10.818;2024-02-23T12:04:44;5.55;;;1.45;;
28988;SDS011;16089;59.952;10.818;2024-02-23T12:07:11;4.28;;;1.60;;
28988;SDS011;16089;59.952;10.818;2024-02-23T12:09:39;11.20;;;1.80;;
28988;SDS011;16089;59.952;10.818;2024-02-23T12:12:06;6.20;;;1.80;;
28988;SDS011;16089;59.952;10.818;2024-02-23T12:14:34;3.60;;;1.35;;
28988;SDS011;16089;59.952;10.818;2024-02-23T12:17:01;6.05;;;1.80;;
28988;SDS011;16089;59.952;10.818;2024-02-23T12:19:29;5.07;;;1.70;;
28988;SDS011;16089;59.952;10.818;2024-02-23T12:21:59;8.35;;;1.40;;
28988;SDS011;16089;59.952;10.818;2024-02-23T12:24:25;6.50;;;1.30;;
28988;SDS011;16089;59.952;10.818;2024-02-23T12:26:55;7.57;;;1.10;;
28988;SDS011;16089;59.952;10.818;2024-02-23T12:29:21;3.22;;;1.02;;
28988;SDS011;16089;59.952;10.818;2024-02-23T12:31:48;1.65;;;0.80;;
28988;SDS011;16089;59.952;10.818;2024-02-23T12:34:14;3.28;;;0.90;;
28988;SDS011;16089;59.952;10.818;2024-02-23T12:36:41;3.05;;;1.05;;
28988;SDS011;16089;59.952;10.818;2024-02-23T12:39:09;4.15;;;1.30;;
28988;SDS011;16089;59.952;10.818;2024-02-23T12:41:36;2.35;;;0.70;;
28988;SDS011;16089;59.952;10.818;2024-02-23T12:44:04;3.47;;;0.77;;
28988;SDS011;16089;59.952;10.818;2024-02-23T12:46:31;1.98;;;0.68;;
28988;SDS011;16089;59.952;10.818;2024-02-23T12:48:58;1.67;;;0.65;;
28988;SDS011;16089;59.952;10.818;2024-02-23T12:51:25;1.73;;;0.68;;
28988;SDS011;16089;59.952;10.818;2024-02-23T12:53:51;2.97;;;0.60;;
28988;SDS011;16089;59.952;10.818;2024-02-23T12:56:17;2.42;;;0.60;;
28988;SDS011;16089;59.952;10.818;2024-02-23T12:58:45;2.50;;;0.60;;
28988;SDS011;16089;59.952;10.818;2024-02-23T13:01:13;1.00;;;0.50;;
28988;SDS011;16089;59.952;10.818;2024-02-23T13:03:40;3.88;;;0.73;;
28988;SDS011;16089;59.952;10.818;2024-02-23T13:06:06;2.47;;;0.70;;
28988;SDS011;16089;59.952;10.818;2024-02-23T13:08:33;1.35;;;0.55;;
28988;SDS011;16089;59.952;10.818;2024-02-23T13:11:00;1.45;;;0.50;;
28988;SDS011;16089;59.952;10.818;2024-02-23T13:13:27;2.42;;;0.47;;
28988;SDS011;16089;59.952;10.818;2024-02-23T13:15:54;1.55;;;0.40;;
28988;SDS011;16089;59.952;10.818;2024-02-23T13:18:23;0.80;;;0.40;;
28988;SDS011;16089;59.952;10.818;2024-02-23T13:20:49;2.05;;;0.60;;
28988;SDS011;16089;59.952;10.818;2024-02-23T13:23:16;1.88;;;0.47;;
28988;SDS011;16089;59.952;10.818;2024-02-23T13:25:42;1.52;;;0.40;;
28988;SDS011;16089;59.952;10.818;2024-02-23T13:28:09;0.80;;;0.40;;
28988;SDS011;16089;59.952;10.818;2024-02-23T13:30:36;2.33;;;0.40;;
28988;SDS011;16089;59.952;10.818;2024-02-23T13:33:03;1.85;;;0.57;;
28988;SDS011;16089;59.952;10.818;2024-02-23T13:35:32;3.78;;;0.52;;
28988;SDS011;16089;59.952;10.818;2024-02-23T13:37:59;1.40;;;0.50;;
28988;SDS011;16089;59.952;10.818;2024-02-23T13:40:28;1.20;;;0.40;;
28988;SDS011;16089;59.952;10.818;2024-02-23T13:42:54;4.93;;;0.50;;
28988;SDS011;16089;59.952;10.818;2024-02-23T13:45:21;0.95;;;0.30;;
28988;SDS011;16089;59.952;10.818;2024-02-23T13:47:55;0.95;;;0.30;;
28988;SDS011;16089;59.952;10.818;2024-02-23T13:50:22;0.82;;;0.40;;
28988;SDS011;16089;59.952;10.818;2024-02-23T13:52:50;1.63;;;0.35;;
28988;SDS011;16089;59.952;10.818;2024-02-23T13:55:17;1.00;;;0.30;;
28988;SDS011;16089;59.952;10.818;2024-02-23T13:57:45;1.55;;;0.35;;
28988;SDS011;16089;59.952;10.818;2024-02-23T14:00:12;3.95;;;0.40;;
28988;SDS011;16089;59.952;10.818;2024-02-23T14:02:39;1.50;;;0.30;;
28988;SDS011;16089;59.952;10.818;2024-02-23T14:05:06;1.23;;;0.40;;
28988;SDS011;16089;59.952;10.818;2024-02-23T14:07:33;0.80;;;0.20;;
28988;SDS011;16089;59.952;10.818;2024-02-23T14:10:01;2.13;;;0.30;;
28988;SDS011;16089;59.952;10.818;2024-02-23T14:12:28;1.30;;;0.25;;
28988;SDS011;16089;59.952;10.818;2024-02-23T14:14:54;1.25;;;0.28;;
28988;SDS011;16089;59.952;10.818;2024-02-23T14:17:21;0.98;;;0.30;;
28988;SDS011;16089;59.952;10.818;2024-02-23T14:19:47;1.90;;;0.40;;
28988;SDS011;16089;59.952;10.818;2024-02-23T14:22:15;0.77;;;0.30;;
28988;SDS011;16089;59.952;10.818;2024-02-23T14:24:42;1.92;;;0.30;;
28988;SDS011;16089;59.952;10.818;2024-02-23T14:27:10;1.00;;;0.30;;
28988;SDS011;16089;59.952;10.818;2024-02-23T14:29:36;2.15;;;0.57;;
28988;SDS011;16089;59.952;10.818;2024-02-23T14:32:03;0.98;;;0.40;;